Terminal Aerodrome Forecast
Issued by NWS

Home | Current Version | Previous Version | Text Only | Print | Product List | Glossary On
Versions: 1 2 3 4 5 6 7 8 9 10 11 12 13 14 15 16 17 18
382
FTUS45 KTFX 280520
TAFGTF
TAF
KGTF 280520Z 2806/0106 20011KT P6SM SCT070 BKN100
     FM281100 23011KT P6SM VCSH SCT040 OVC070 PROB30 2819/2823 4SM
      -SHSN BR BKN025
     FM010000 31011KT P6SM VCSH SCT040 BKN070=

USA.gov is the U.S. government's official web portal to all federal, state and local government web resources and services.